createdAt,value
2023-04-16T00:00:13.035Z,97231.47
2023-04-16T00:03:16.039Z,97238.44
2023-04-16T00:06:17.671Z,97229.84
2023-04-16T00:09:19.116Z,97231.84
2023-04-16T00:12:20.703Z,97238.41
2023-04-16T00:15:22.323Z,97238.00
2023-04-16T00:18:23.803Z,97239.84
2023-04-16T00:21:26.413Z,97238.00
2023-04-16T00:24:27.949Z,97235.75
2023-04-16T00:27:29.481Z,97233.66
2023-04-16T00:30:31.051Z,97236.44
2023-04-16T00:33:32.708Z,97239.38
2023-04-16T00:36:35.481Z,97233.06
2023-04-16T00:39:37.431Z,97238.00
2023-04-16T00:42:39.004Z,97239.19
2023-04-16T00:45:40.552Z,97241.66
2023-04-16T00:48:44.625Z,97249.00
2023-04-16T00:51:46.390Z,97247.16
2023-04-16T00:54:48.821Z,97245.47
2023-04-16T00:57:51.695Z,97235.66
2023-04-16T01:00:53.149Z,97230.78
2023-04-16T01:03:56.912Z,97239.94
2023-04-16T01:06:58.581Z,97251.41
2023-04-16T01:10:00.109Z,97251.41
2023-04-16T01:13:01.783Z,97250.19
2023-04-16T01:16:06.712Z,97249.63
2023-04-16T01:19:08.602Z,97252.50
2023-04-16T01:22:10.490Z,97242.03
2023-04-16T01:25:16.160Z,97248.63
2023-04-16T01:28:17.694Z,97250.88
2023-04-16T01:31:19.299Z,97257.59
2023-04-16T01:34:35.860Z,97260.22
2023-04-16T01:37:37.418Z,97260.59
2023-04-16T01:40:39.025Z,97253.44
2023-04-16T01:43:41.263Z,97257.72
2023-04-16T01:46:43.518Z,97255.09
2023-04-16T01:49:45.671Z,97253.91
2023-04-16T01:52:47.625Z,97255.72
2023-04-16T01:55:49.133Z,97260.84
2023-04-16T01:58:50.654Z,97261.13
2023-04-16T02:01:53.988Z,97263.34
2023-04-16T02:04:58.933Z,97268.63
2023-04-16T02:08:00.456Z,97262.91
2023-04-16T02:11:02.168Z,97266.38
2023-04-16T02:14:03.957Z,97265.97
2023-04-16T02:17:05.612Z,97262.31
2023-04-16T02:20:18.139Z,97264.38
2023-04-16T02:23:27.663Z,97266.03
2023-04-16T02:26:30.136Z,97273.19
2023-04-16T02:29:36.814Z,97274.19
2023-04-16T02:32:45.833Z,97275.00
2023-04-16T02:35:48.666Z,97270.13
2023-04-16T02:38:50.174Z,97275.66
2023-04-16T02:41:52.355Z,97278.13
2023-04-16T02:44:54.714Z,97274.88
2023-04-16T02:47:56.181Z,97271.38
2023-04-16T02:50:57.808Z,97276.06
2023-04-16T02:53:59.364Z,97276.06
2023-04-16T02:57:02.339Z,97269.09
2023-04-16T03:00:06.801Z,97271.53
2023-04-16T03:03:08.485Z,97265.19
2023-04-16T03:06:10.203Z,97269.47
2023-04-16T03:09:11.918Z,97264.75
2023-04-16T03:12:13.774Z,97270.31
2023-04-16T03:15:15.341Z,97260.69
2023-04-16T03:18:16.940Z,97270.09
2023-04-16T03:21:18.479Z,97267.44
2023-04-16T03:24:19.958Z,97269.53
2023-04-16T03:27:23.850Z,97269.53
2023-04-16T03:30:25.332Z,97270.34
2023-04-16T03:33:27.043Z,97273.19
2023-04-16T03:36:28.554Z,97274.19
2023-04-16T03:39:31.119Z,97265.19
2023-04-16T03:42:33.538Z,97275.59
2023-04-16T03:45:35.052Z,97276.84
2023-04-16T03:48:36.825Z,97283.25
2023-04-16T03:51:38.735Z,97276.28
2023-04-16T03:54:40.428Z,97282.66
2023-04-16T03:57:55.717Z,97277.31
2023-04-16T04:00:57.233Z,97279.53
2023-04-16T04:03:59.853Z,97281.63
2023-04-16T04:07:01.558Z,97277.09
2023-04-16T04:10:03.247Z,97282.22
2023-04-16T04:13:08.931Z,97274.84
2023-04-16T04:16:11.140Z,97278.53
2023-04-16T04:19:12.776Z,97281.81
2023-04-16T04:22:14.356Z,97291.84
2023-04-16T04:25:17.226Z,97291.22
2023-04-16T04:28:18.762Z,97293.25
2023-04-16T04:31:23.223Z,97293.66
2023-04-16T04:34:24.902Z,97292.47
2023-04-16T04:37:26.426Z,97295.94
2023-04-16T04:40:27.852Z,97298.81
2023-04-16T04:43:29.636Z,97300.88
2023-04-16T04:46:31.227Z,97302.72
2023-04-16T04:49:32.783Z,97308.03
2023-04-16T04:52:34.339Z,97302.25
2023-04-16T04:55:40.430Z,97303.38
2023-04-16T04:58:42.037Z,97313.69
2023-04-16T05:01:43.640Z,97312.44
2023-04-16T05:04:45.112Z,97320.69
2023-04-16T05:07:46.617Z,97307.38
2023-04-16T05:10:48.178Z,97316.41
2023-04-16T05:13:49.660Z,97319.28
2023-04-16T05:16:51.447Z,97322.56
2023-04-16T05:19:52.942Z,97327.53
2023-04-16T05:22:55.384Z,97317.47
2023-04-16T05:25:56.958Z,97327.66
2023-04-16T05:28:58.533Z,97332.59
2023-04-16T05:32:00.098Z,97329.31
2023-04-16T05:35:01.687Z,97336.25
2023-04-16T05:38:04.380Z,97327.69
2023-04-16T05:41:05.950Z,97336.91
2023-04-16T05:44:07.417Z,97344.84
2023-04-16T05:47:09.541Z,97344.38
2023-04-16T05:50:11.264Z,97356.22
2023-04-16T05:53:14.262Z,97360.78
2023-04-16T05:56:15.816Z,97360.44
2023-04-16T05:59:17.418Z,97363.88
2023-04-16T06:02:19.947Z,97369.34
2023-04-16T06:05:21.678Z,97365.63
2023-04-16T06:08:23.161Z,97378.97
2023-04-16T06:11:24.646Z,97381.75
2023-04-16T06:14:26.074Z,97377.47
2023-04-16T06:17:27.704Z,97381.59
2023-04-16T06:20:29.436Z,97373.13
2023-04-16T06:23:31.199Z,97379.03
2023-04-16T06:26:32.722Z,97383.13
2023-04-16T06:29:41.199Z,97383.16
2023-04-16T06:32:44.295Z,97376.66
2023-04-16T06:35:45.832Z,97386.88
2023-04-16T06:38:47.352Z,97393.19
2023-04-16T06:41:49.116Z,97393.22
2023-04-16T06:44:50.657Z,97394.25
2023-04-16T06:47:52.394Z,97395.72
2023-04-16T06:50:55.119Z,97401.50
2023-04-16T06:53:56.603Z,97414.19
2023-04-16T06:56:58.088Z,97411.28
2023-04-16T06:59:59.609Z,97410.81
2023-04-16T07:03:01.744Z,97404.63
2023-04-16T07:06:03.612Z,97403.13
2023-04-16T07:09:05.188Z,97411.69
2023-04-16T07:12:07.280Z,97412.34
2023-04-16T07:15:09.546Z,97406.72
2023-04-16T07:18:11.070Z,97414.28
2023-04-16T07:21:12.638Z,97405.75
2023-04-16T07:24:14.277Z,97406.81
2023-04-16T07:27:18.149Z,97421.75
2023-04-16T07:30:22.867Z,97407.88
2023-04-16T07:33:40.154Z,97405.41
2023-04-16T07:36:44.626Z,97411.56
2023-04-16T07:39:51.601Z,97422.72
2023-04-16T07:42:53.227Z,97425.97
2023-04-16T07:46:10.664Z,97422.72
2023-04-16T07:49:12.189Z,97429.94
2023-04-16T07:55:44.498Z,97429.06
2023-04-16T07:58:45.921Z,97430.47
2023-04-16T08:01:47.466Z,97434.22
2023-04-16T08:04:48.996Z,97433.28
2023-04-16T08:07:50.593Z,97438.28
2023-04-16T08:10:55.818Z,97442.22
2023-04-16T08:13:57.416Z,97451.31
2023-04-16T08:16:58.964Z,97455.25
2023-04-16T08:20:00.873Z,97451.72
2023-04-16T08:23:02.337Z,97448.72
2023-04-16T08:26:03.756Z,97455.91
2023-04-16T08:29:05.261Z,97460.38
2023-04-16T08:32:06.952Z,97460.63
2023-04-16T08:35:09.366Z,97464.31
2023-04-16T08:38:10.912Z,97463.03
2023-04-16T08:41:13.334Z,97473.91
2023-04-16T08:44:19.642Z,97474.00
2023-04-16T08:47:24.098Z,97469.47
2023-04-16T08:50:26.645Z,97479.81
2023-04-16T08:53:36.799Z,97470.78
2023-04-16T08:56:42.978Z,97483.75
2023-04-16T08:59:47.516Z,97473.66
2023-04-16T09:02:50.437Z,97484.53
2023-04-16T09:05:53.387Z,97482.69
2023-04-16T09:08:58.052Z,97486.41
2023-04-16T09:11:59.938Z,97495.78
2023-04-16T09:15:03.381Z,97490.44
2023-04-16T09:18:04.962Z,97494.06
2023-04-16T09:21:09.261Z,97501.38
2023-04-16T09:24:11.544Z,97489.03
2023-04-16T09:27:13.203Z,97489.13
2023-04-16T09:30:22.279Z,97488.84
2023-04-16T09:33:23.785Z,97496.63
2023-04-16T09:36:26.417Z,97498.25
2023-04-16T09:39:27.990Z,97500.53
2023-04-16T09:42:32.190Z,97497.69
2023-04-16T09:45:48.441Z,97496.09
2023-04-16T09:48:49.944Z,97503.28
2023-04-16T09:51:54.525Z,97506.59
2023-04-16T09:54:56.244Z,97513.13
2023-04-16T09:58:01.584Z,97510.81
2023-04-16T10:01:09.154Z,97514.03
2023-04-16T10:04:11.020Z,97514.88
2023-04-16T10:07:13.321Z,97521.81
2023-04-16T10:10:15.549Z,97522.19
2023-04-16T10:13:19.056Z,97527.63
2023-04-16T10:16:22.550Z,97523.88
2023-04-16T10:19:25.357Z,97532.50
2023-04-16T10:22:26.887Z,97531.19
2023-04-16T10:25:28.986Z,97532.91
2023-04-16T10:28:31.002Z,97539.50
2023-04-16T10:31:33.205Z,97538.91
2023-04-16T10:34:35.882Z,97530.69
2023-04-16T10:37:37.634Z,97537.94
2023-04-16T10:40:39.180Z,97532.13
2023-04-16T10:43:43.609Z,97540.16
2023-04-16T10:46:49.666Z,97540.31
2023-04-16T10:49:51.799Z,97538.03
2023-04-16T10:53:19.488Z,97540.72
2023-04-16T10:56:26.077Z,97540.94
2023-04-16T10:59:31.950Z,97541.16
2023-04-16T11:02:33.856Z,97540.53
2023-04-16T11:05:46.880Z,97534.78
2023-04-16T11:08:54.950Z,97535.47
2023-04-16T11:11:57.225Z,97540.16
2023-04-16T11:15:02.978Z,97539.53
2023-04-16T11:18:06.831Z,97538.69
2023-04-16T11:21:12.644Z,97544.56
2023-04-16T11:24:14.100Z,97551.72
2023-04-16T11:27:16.140Z,97548.25
2023-04-16T11:30:18.544Z,97547.50
2023-04-16T11:33:20.016Z,97553.94
2023-04-16T11:36:21.498Z,97546.78
2023-04-16T11:39:23.229Z,97542.91
2023-04-16T11:42:24.778Z,97539.84
2023-04-16T11:45:26.559Z,97546.59
2023-04-16T11:49:06.852Z,97552.59
2023-04-16T11:52:08.403Z,97551.34
2023-04-16T11:55:09.977Z,97549.47
2023-04-16T11:58:12.940Z,97558.25
2023-04-16T12:01:21.032Z,97555.50
2023-04-16T12:04:25.297Z,97559.81
2023-04-16T12:07:27.325Z,97556.94
2023-04-16T12:10:30.595Z,97558.44
2023-04-16T12:13:39.653Z,97567.25
2023-04-16T12:16:41.211Z,97559.91
2023-04-16T12:19:59.801Z,97562.78
2023-04-16T12:23:01.380Z,97566.44
2023-04-16T12:26:12.168Z,97564.81
2023-04-16T12:29:25.376Z,97575.09
2023-04-16T12:32:26.846Z,97576.31
2023-04-16T12:35:32.780Z,97576.31
2023-04-16T12:38:34.254Z,97580.66
2023-04-16T12:41:37.434Z,97580.81
2023-04-16T12:44:38.918Z,97575.91
2023-04-16T12:47:40.517Z,97583.91
2023-04-16T12:50:44.112Z,97582.88
2023-04-16T12:53:45.553Z,97585.75
2023-04-16T12:56:47.128Z,97586.19
2023-04-16T12:59:48.609Z,97585.38
2023-04-16T13:02:50.427Z,97576.75
2023-04-16T13:05:52.081Z,97582.09
2023-04-16T13:08:53.597Z,97576.72
2023-04-16T13:11:55.122Z,97573.25
2023-04-16T13:14:56.639Z,97570.16
2023-04-16T13:17:58.093Z,97575.50
2023-04-16T13:20:59.852Z,97574.88
2023-04-16T13:24:01.319Z,97569.97
2023-04-16T13:27:02.980Z,97572.22
2023-04-16T13:30:04.840Z,97576.13
2023-04-16T13:33:06.600Z,97566.47
2023-04-16T13:36:08.290Z,97576.75
2023-04-16T13:39:12.739Z,97564.44
2023-04-16T13:42:14.317Z,97571.03
2023-04-16T13:45:16.068Z,97570.66
2023-04-16T13:48:17.863Z,97566.31
2023-04-16T13:51:19.369Z,97574.53
2023-04-16T13:54:20.840Z,97572.38
2023-04-16T13:57:22.684Z,97565.53
2023-04-16T14:00:26.046Z,97562.28
2023-04-16T14:03:27.666Z,97567.28
2023-04-16T14:06:29.133Z,97566.91
2023-04-16T14:09:30.750Z,97561.00
2023-04-16T14:12:32.423Z,97570.03
2023-04-16T14:15:33.887Z,97569.81
2023-04-16T14:18:36.001Z,97565.69
2023-04-16T14:21:37.486Z,97575.53
2023-04-16T14:24:38.924Z,97576.34
2023-04-16T14:27:41.483Z,97574.31
2023-04-16T14:30:43.041Z,97571.03
2023-04-16T14:33:44.485Z,97567.97
2023-04-16T14:36:46.425Z,97563.47
2023-04-16T14:39:48.022Z,97558.94
2023-04-16T14:42:49.535Z,97566.50
2023-04-16T14:45:51.020Z,97562.78
2023-04-16T14:48:53.134Z,97567.28
2023-04-16T14:51:54.850Z,97571.41
2023-04-16T14:54:56.425Z,97562.53
2023-04-16T14:57:58.711Z,97567.44
2023-04-16T15:01:00.301Z,97562.53
2023-04-16T15:04:03.035Z,97563.00
2023-04-16T15:07:04.588Z,97569.78
2023-04-16T15:10:08.363Z,97571.81
2023-04-16T15:13:09.889Z,97575.94
2023-04-16T15:16:11.877Z,97577.59
2023-04-16T15:19:13.402Z,97571.25
2023-04-16T15:22:15.830Z,97574.13
2023-04-16T15:25:17.377Z,97576.16
2023-04-16T15:28:18.882Z,97578.66
2023-04-16T15:31:20.901Z,97578.44
2023-04-16T15:34:22.675Z,97576.22
2023-04-16T15:37:24.157Z,97589.13
2023-04-16T15:40:25.690Z,97585.44
2023-04-16T15:43:28.868Z,97586.25
2023-04-16T15:46:30.465Z,97588.91
2023-04-16T15:49:31.992Z,97590.16
2023-04-16T15:52:33.664Z,97591.59
2023-04-16T15:55:35.757Z,97589.75
2023-04-16T15:58:37.346Z,97586.66
2023-04-16T16:01:38.877Z,97587.91
2023-04-16T16:04:45.855Z,97586.88
2023-04-16T16:07:47.618Z,97582.53
2023-04-16T16:10:49.152Z,97587.91
2023-04-16T16:13:51.042Z,97585.00
2023-04-16T16:16:52.502Z,97588.31
2023-04-16T16:19:56.290Z,97593.22
2023-04-16T16:22:57.959Z,97587.88
2023-04-16T16:25:59.425Z,97602.25
2023-04-16T16:29:01.475Z,97600.16
2023-04-16T16:32:03.079Z,97590.94
2023-04-16T16:35:04.875Z,97599.56
2023-04-16T16:38:06.389Z,97594.00
2023-04-16T16:41:08.246Z,97597.09
2023-04-16T16:44:09.789Z,97604.69
2023-04-16T16:47:11.280Z,97603.22
2023-04-16T16:50:12.872Z,97599.53
2023-04-16T16:53:14.309Z,97595.44
2023-04-16T16:56:15.924Z,97589.47
2023-04-16T16:59:17.349Z,97597.66
2023-04-16T17:02:18.943Z,97599.09
2023-04-16T17:05:20.697Z,97597.84
2023-04-16T17:08:22.303Z,97606.88
2023-04-16T17:11:26.792Z,97609.34
2023-04-16T17:14:28.245Z,97611.00
2023-04-16T17:17:30.827Z,97608.31
2023-04-16T17:20:33.759Z,97614.69
2023-04-16T17:23:35.417Z,97610.16
2023-04-16T17:26:36.890Z,97614.88
2023-04-16T17:29:38.363Z,97615.28
2023-04-16T17:32:40.062Z,97614.47
2023-04-16T17:35:41.585Z,97613.03
2023-04-16T17:38:44.810Z,97614.69
2023-04-16T17:41:46.589Z,97622.28
2023-04-16T17:44:48.126Z,97625.09
2023-04-16T17:47:49.690Z,97617.09
2023-04-16T17:50:51.340Z,97623.66
2023-04-16T17:53:53.063Z,97630.00
2023-04-16T17:56:54.561Z,97634.91
2023-04-16T17:59:56.477Z,97637.38
2023-04-16T18:02:59.695Z,97639.03
2023-04-16T18:06:01.326Z,97629.00
2023-04-16T18:09:05.114Z,97635.13
2023-04-16T18:12:06.954Z,97636.72
2023-04-16T18:15:09.057Z,97632.78
2023-04-16T18:18:10.810Z,97642.84
2023-04-16T18:21:12.653Z,97642.63
2023-04-16T18:24:15.351Z,97642.63
2023-04-16T18:27:17.026Z,97641.78
2023-04-16T18:30:25.090Z,97641.97
2023-04-16T18:33:49.996Z,97646.88
2023-04-16T18:36:49.468Z,97644.88
2023-04-16T18:39:51.070Z,97644.06
2023-04-16T18:42:52.674Z,97643.88
2023-04-16T18:45:54.146Z,97646.50
2023-04-16T18:48:55.732Z,97644.00
2023-04-16T18:51:57.197Z,97652.81
2023-04-16T18:54:58.697Z,97657.22
2023-04-16T18:58:00.153Z,97660.88
2023-04-16T19:01:02.204Z,97662.78
2023-04-16T19:04:03.763Z,97659.94
2023-04-16T19:07:05.229Z,97660.94
2023-04-16T19:10:07.313Z,97657.47
2023-04-16T19:13:08.813Z,97665.94
2023-04-16T19:16:12.149Z,97663.47
2023-04-16T19:19:14.005Z,97667.13
2023-04-16T19:22:15.500Z,97664.47
2023-04-16T19:25:17.160Z,97665.69
2023-04-16T19:28:18.660Z,97675.13
2023-04-16T19:31:20.688Z,97660.13
2023-04-16T19:34:22.144Z,97671.22
2023-04-16T19:37:23.746Z,97666.94
2023-04-16T19:40:25.181Z,97667.56
2023-04-16T19:43:28.009Z,97665.69
2023-04-16T19:46:30.381Z,97665.69
2023-04-16T19:49:34.240Z,97672.03
2023-04-16T19:52:38.794Z,97668.00
2023-04-16T19:55:41.186Z,97673.06
2023-04-16T19:58:42.724Z,97672.88
2023-04-16T20:01:44.197Z,97665.28
2023-04-16T20:04:47.924Z,97667.50
2023-04-16T20:07:51.285Z,97666.88
2023-04-16T20:10:54.488Z,97670.34
2023-04-16T20:14:00.080Z,97669.59
2023-04-16T20:17:01.921Z,97668.19
2023-04-16T20:20:09.794Z,97669.19
2023-04-16T20:23:11.214Z,97666.94
2023-04-16T20:26:18.175Z,97665.53
2023-04-16T20:29:19.725Z,97660.84
2023-04-16T20:32:21.309Z,97661.19
2023-04-16T20:35:22.868Z,97661.00
2023-04-16T20:38:24.360Z,97662.25
2023-04-16T20:41:27.229Z,97655.09
2023-04-16T20:44:40.228Z,97645.81
2023-04-16T20:47:43.407Z,97653.25
2023-04-16T20:50:45.039Z,97632.75
2023-04-16T20:53:46.520Z,97638.06
2023-04-16T20:56:49.562Z,97648.97
2023-04-16T20:59:51.104Z,97640.97
2023-04-16T21:02:52.822Z,97637.69
2023-04-16T21:05:55.566Z,97634.22
2023-04-16T21:08:57.160Z,97630.31
2023-04-16T21:11:58.810Z,97636.88
2023-04-16T21:15:00.575Z,97632.50
2023-04-16T21:18:02.036Z,97629.22
2023-04-16T21:21:03.732Z,97631.41
2023-04-16T21:24:05.592Z,97630.38
2023-04-16T21:27:07.200Z,97625.88
2023-04-16T21:30:12.375Z,97626.75
2023-04-16T21:33:16.083Z,97632.91
2023-04-16T21:36:17.611Z,97625.38
2023-04-16T21:39:21.503Z,97633.56
2023-04-16T21:42:22.975Z,97631.53
2023-04-16T21:45:24.483Z,97629.06
2023-04-16T21:48:26.996Z,97623.94
2023-04-16T21:51:31.519Z,97622.09
2023-04-16T21:54:32.968Z,97619.41
2023-04-16T21:57:34.389Z,97623.31
2023-04-16T22:00:35.924Z,97618.22
2023-04-16T22:03:40.496Z,97619.84
2023-04-16T22:06:43.011Z,97617.38
2023-04-16T22:09:44.544Z,97616.75
2023-04-16T22:12:47.076Z,97616.75
2023-04-16T22:15:48.567Z,97619.66
2023-04-16T22:18:50.663Z,97604.69
2023-04-16T22:21:52.103Z,97606.72
2023-04-16T22:24:53.633Z,97611.84
2023-04-16T22:27:55.490Z,97605.72
2023-04-16T22:30:57.017Z,97603.88
2023-04-16T22:33:58.699Z,97602.84
2023-04-16T22:37:02.885Z,97594.84
2023-04-16T22:40:08.378Z,97601.00
2023-04-16T22:43:09.814Z,97605.31
2023-04-16T22:46:11.349Z,97598.34
2023-04-16T22:49:13.266Z,97601.00
2023-04-16T22:52:14.944Z,97599.56
2023-04-16T22:55:16.675Z,97597.72
2023-04-16T22:58:18.163Z,97603.63
2023-04-16T23:01:19.690Z,97603.63
2023-04-16T23:04:21.402Z,97601.81
2023-04-16T23:07:22.916Z,97599.75
2023-04-16T23:10:24.433Z,97598.53
2023-04-16T23:13:25.911Z,97597.72
2023-04-16T23:16:28.704Z,97593.59
2023-04-16T23:19:31.209Z,97591.16
2023-04-16T23:22:32.811Z,97594.66
2023-04-16T23:25:34.242Z,97586.25
2023-04-16T23:28:35.772Z,97585.44
2023-04-16T23:31:37.225Z,97580.72
2023-04-16T23:34:38.760Z,97575.22
2023-04-16T23:37:40.490Z,97585.25
2023-04-16T23:40:42.277Z,97583.59
2023-04-16T23:43:43.961Z,97590.53
2023-04-16T23:46:45.473Z,97578.25
2023-04-16T23:49:47.000Z,97577.59
2023-04-16T23:52:48.425Z,97580.28
2023-04-16T23:55:50.068Z,97580.28
2023-04-16T23:58:51.538Z,97580.06
